Time;durP1;ratioP1;P1;durP2;ratioP2;P2;SDS_P1;SDS_P2;PMS_P1;PMS_P2;Temp;Humidity;BMP_temperature;BMP_pressure;BME280_temperature;BME280_humidity;BME280_pressure;Samples;Min_cycle;Max_cycle;Signal;HPM_P1;HPM_P2
2021/07/04 00:01:07;;;;;;;9.73;7.83;;;;;;;;;;5039296;28;20259;-56
2021/07/04 00:03:32;;;;;;;8.90;8.00;;;;;;;;;;5064267;28;20778;-57
2021/07/04 00:05:58;;;;;;;9.00;7.10;;;;;;;;;;5066012;28;20213;-57
2021/07/04 00:08:24;;;;;;;8.07;7.27;;;;;;;;;;5058505;28;20198;-56
2021/07/04 00:10:54;;;;;;;8.90;8.00;;;;;;;;;;5064909;28;20300;-56
2021/07/04 00:13:20;;;;;;;7.77;6.97;;;;;;;;;;5034700;28;20212;-56
2021/07/04 00:15:46;;;;;;;6.77;6.17;;;;;;;;;;5060887;28;20247;-55
2021/07/04 00:18:14;;;;;;;8.03;6.17;;;;;;;;;;5067938;28;20188;-55
2021/07/04 00:20:42;;;;;;;8.33;6.20;;;;;;;;;;5056449;28;20267;-56
2021/07/04 00:23:07;;;;;;;6.63;6.00;;;;;;;;;;5057731;28;20197;-56
2021/07/04 00:25:34;;;;;;;7.10;6.40;;;;;;;;;;5068207;28;20204;-55
2021/07/04 00:27:59;;;;;;;8.30;6.80;;;;;;;;;;5054189;28;20189;-56
2021/07/04 00:30:25;;;;;;;9.67;6.73;;;;;;;;;;5070248;28;20250;-58
2021/07/04 00:32:51;;;;;;;9.83;6.67;;;;;;;;;;5079714;28;20190;-56
2021/07/04 00:35:19;;;;;;;6.70;6.00;;;;;;;;;;5054329;28;20185;-57
2021/07/04 00:37:46;;;;;;;8.77;6.10;;;;;;;;;;5049466;28;20182;-55
2021/07/04 00:40:15;;;;;;;6.67;5.60;;;;;;;;;;5063846;28;20205;-56
2021/07/04 00:42:40;;;;;;;6.33;5.80;;;;;;;;;;5071740;28;20192;-55
2021/07/04 00:45:09;;;;;;;8.20;6.90;;;;;;;;;;5060224;28;20204;-56
2021/07/04 00:47:35;;;;;;;7.63;6.23;;;;;;;;;;5066931;28;20221;-56
2021/07/04 00:50:00;;;;;;;8.37;6.23;;;;;;;;;;5068403;28;20302;-56
2021/07/04 00:52:26;;;;;;;6.23;5.63;;;;;;;;;;5063600;28;20189;-55
2021/07/04 00:54:51;;;;;;;8.27;5.37;;;;;;;;;;5066812;28;20181;-57
2021/07/04 00:57:17;;;;;;;8.73;5.00;;;;;;;;;;5067556;28;20197;-56
2021/07/04 00:59:42;;;;;;;6.87;5.70;;;;;;;;;;5070001;28;20196;-55
2021/07/04 01:02:07;;;;;;;7.53;4.57;;;;;;;;;;5060684;28;20260;-57
2021/07/04 01:04:33;;;;;;;9.50;4.37;;;;;;;;;;5071779;28;20196;-56
2021/07/04 01:06:58;;;;;;;8.77;4.97;;;;;;;;;;5075048;28;20201;-56
2021/07/04 01:09:23;;;;;;;6.57;4.60;;;;;;;;;;5070427;28;20190;-56
2021/07/04 01:11:49;;;;;;;8.17;5.87;;;;;;;;;;5062677;28;20213;-56
2021/07/04 01:14:15;;;;;;;9.23;4.40;;;;;;;;;;5061154;28;20190;-56
2021/07/04 01:16:41;;;;;;;8.40;4.60;;;;;;;;;;5058282;28;20189;-55
2021/07/04 01:19:07;;;;;;;8.93;5.97;;;;;;;;;;5061481;28;20235;-56
2021/07/04 01:21:33;;;;;;;7.87;7.13;;;;;;;;;;5040095;28;20284;-55
2021/07/04 01:23:59;;;;;;;7.07;6.30;;;;;;;;;;5060741;28;20599;-57
2021/07/04 01:26:24;;;;;;;8.37;5.57;;;;;;;;;;5067928;28;20736;-56
2021/07/04 01:28:50;;;;;;;8.27;5.60;;;;;;;;;;5050388;28;20277;-56
2021/07/04 01:31:15;;;;;;;12.03;4.50;;;;;;;;;;5065010;28;20240;-55
2021/07/04 01:33:40;;;;;;;7.73;4.47;;;;;;;;;;5051158;28;20193;-57
2021/07/04 01:36:06;;;;;;;7.67;4.37;;;;;;;;;;5050005;28;20213;-55
2021/07/04 01:38:32;;;;;;;9.37;4.63;;;;;;;;;;5050779;28;20194;-55
2021/07/04 01:40:58;;;;;;;8.80;5.67;;;;;;;;;;5069670;28;20213;-56
2021/07/04 01:43:23;;;;;;;12.30;7.00;;;;;;;;;;5069192;28;20192;-56
2021/07/04 01:45:49;;;;;;;10.20;6.20;;;;;;;;;;5069329;28;20209;-56
2021/07/04 01:48:14;;;;;;;12.73;8.37;;;;;;;;;;5067667;28;20193;-55
2021/07/04 01:50:46;;;;;;;10.37;7.17;;;;;;;;;;5058179;28;20205;-57
2021/07/04 01:53:14;;;;;;;10.30;7.10;;;;;;;;;;5064890;28;20587;-56
2021/07/04 01:55:39;;;;;;;12.77;7.27;;;;;;;;;;5052332;28;20633;-57
2021/07/04 01:58:05;;;;;;;11.77;7.70;;;;;;;;;;5052999;28;20190;-56
2021/07/04 02:00:33;;;;;;;13.00;7.87;;;;;;;;;;5063427;28;20775;-55
2021/07/04 02:03:03;;;;;;;10.47;7.13;;;;;;;;;;5052866;28;20185;-55
2021/07/04 02:05:29;;;;;;;12.23;7.17;;;;;;;;;;5064329;28;20285;-56
2021/07/04 02:07:54;;;;;;;9.50;6.90;;;;;;;;;;5059463;28;20296;-56
2021/07/04 02:10:22;;;;;;;10.27;7.70;;;;;;;;;;5050219;28;20673;-58
2021/07/04 02:12:48;;;;;;;8.63;7.57;;;;;;;;;;5074715;28;20276;-57
2021/07/04 02:15:17;;;;;;;12.33;7.67;;;;;;;;;;5049385;28;20186;-56
2021/07/04 02:17:43;;;;;;;14.57;8.00;;;;;;;;;;5058335;28;20200;-55
2021/07/04 02:20:42;;;;;;;14.67;7.97;;;;;;;;;;5068806;28;20202;-57
2021/07/04 02:23:12;;;;;;;12.47;8.60;;;;;;;;;;5001297;28;20590;-55
2021/07/04 02:25:40;;;;;;;15.17;8.97;;;;;;;;;;5062617;28;20217;-55
2021/07/04 02:28:07;;;;;;;14.70;9.37;;;;;;;;;;5036527;28;20247;-55
2021/07/04 02:30:34;;;;;;;14.87;10.80;;;;;;;;;;5053098;28;20213;-56
2021/07/04 02:33:02;;;;;;;14.20;11.03;;;;;;;;;;5062514;28;20201;-55
2021/07/04 02:35:29;;;;;;;19.10;14.20;;;;;;;;;;5045416;28;20192;-55
2021/07/04 02:37:55;;;;;;;15.93;13.00;;;;;;;;;;5069052;28;20570;-56
2021/07/04 02:40:22;;;;;;;15.10;11.93;;;;;;;;;;5058610;28;20201;-58
2021/07/04 02:42:47;;;;;;;19.93;11.73;;;;;;;;;;5069834;28;20185;-56
2021/07/04 02:45:13;;;;;;;13.73;10.40;;;;;;;;;;5066176;28;20205;-56
2021/07/04 02:47:39;;;;;;;11.43;10.33;;;;;;;;;;5058582;28;20272;-55
2021/07/04 02:50:05;;;;;;;10.20;9.07;;;;;;;;;;5068117;28;20808;-55
2021/07/04 02:52:31;;;;;;;11.37;8.10;;;;;;;;;;5073479;28;20191;-56
2021/07/04 02:54:56;;;;;;;10.13;7.57;;;;;;;;;;5056410;28;20193;-58
2021/07/04 02:57:21;;;;;;;8.87;7.27;;;;;;;;;;5065840;28;20196;-57
2021/07/04 02:59:46;;;;;;;10.73;6.40;;;;;;;;;;5066473;28;20215;-55
2021/07/04 03:02:12;;;;;;;11.10;6.80;;;;;;;;;;5048456;28;20192;-55
2021/07/04 03:04:37;;;;;;;12.83;7.27;;;;;;;;;;5058778;28;20216;-57
2021/07/04 03:07:02;;;;;;;17.17;7.70;;;;;;;;;;5068374;28;20201;-54
2021/07/04 03:09:28;;;;;;;11.07;6.30;;;;;;;;;;5049251;28;20189;-56
2021/07/04 03:11:55;;;;;;;12.47;7.10;;;;;;;;;;5043228;28;20198;-55
2021/07/04 03:14:21;;;;;;;9.23;7.30;;;;;;;;;;5073343;28;20529;-55
2021/07/04 03:16:46;;;;;;;10.67;7.13;;;;;;;;;;5042457;28;20190;-56
2021/07/04 03:19:11;;;;;;;8.30;6.97;;;;;;;;;;5056941;28;20192;-56
2021/07/04 03:21:37;;;;;;;9.73;6.97;;;;;;;;;;5058063;28;20223;-58
2021/07/04 03:24:02;;;;;;;8.97;7.10;;;;;;;;;;5043817;28;20191;-56
2021/07/04 03:26:27;;;;;;;13.17;7.70;;;;;;;;;;5047840;28;20712;-55
2021/07/04 03:28:52;;;;;;;11.97;7.77;;;;;;;;;;5066576;28;20883;-56
2021/07/04 03:31:18;;;;;;;12.93;8.60;;;;;;;;;;5060727;28;20236;-59
2021/07/04 03:33:43;;;;;;;9.10;7.97;;;;;;;;;;5062389;28;20192;-55
2021/07/04 03:36:08;;;;;;;11.93;8.57;;;;;;;;;;5062356;28;20186;-55
2021/07/04 03:38:34;;;;;;;11.53;8.13;;;;;;;;;;5054727;28;20194;-55
2021/07/04 03:40:59;;;;;;;14.47;8.20;;;;;;;;;;5066849;28;20979;-56
2021/07/04 03:43:25;;;;;;;13.80;8.80;;;;;;;;;;5063950;28;20661;-57
2021/07/04 03:45:50;;;;;;;14.67;9.40;;;;;;;;;;5066606;28;20213;-55
2021/07/04 03:48:15;;;;;;;12.53;8.80;;;;;;;;;;5052661;28;20560;-56
2021/07/04 03:50:41;;;;;;;17.97;10.50;;;;;;;;;;5054978;28;20205;-56
2021/07/04 03:53:07;;;;;;;18.17;10.03;;;;;;;;;;5056102;28;20200;-55
2021/07/04 03:55:32;;;;;;;16.33;11.47;;;;;;;;;;5053275;28;20186;-56
2021/07/04 03:57:58;;;;;;;17.70;11.83;;;;;;;;;;5063722;28;20811;-57
2021/07/04 04:00:23;;;;;;;16.60;13.13;;;;;;;;;;5064131;28;20212;-56
2021/07/04 04:02:49;;;;;;;14.93;12.83;;;;;;;;;;5046058;28;20189;-56
2021/07/04 04:05:14;;;;;;;20.97;13.17;;;;;;;;;;5049530;28;20212;-56
2021/07/04 04:07:40;;;;;;;17.47;13.43;;;;;;;;;;5068078;28;20716;-56
2021/07/04 04:10:07;;;;;;;17.37;12.10;;;;;;;;;;5048884;28;20213;-57
2021/07/04 04:12:32;;;;;;;18.33;13.07;;;;;;;;;;5062050;28;20247;-55
2021/07/04 04:15:00;;;;;;;15.37;13.30;;;;;;;;;;5068502;28;20178;-55
2021/07/04 04:17:29;;;;;;;16.60;13.87;;;;;;;;;;5057577;28;20209;-55
2021/07/04 04:19:54;;;;;;;20.73;13.97;;;;;;;;;;5058527;28;20239;-55
2021/07/04 04:22:20;;;;;;;17.83;13.40;;;;;;;;;;5068393;28;20189;-57
2021/07/04 04:24:46;;;;;;;17.13;12.80;;;;;;;;;;5062043;28;20211;-56
2021/07/04 04:27:12;;;;;;;15.87;12.77;;;;;;;;;;5063907;28;20201;-57
2021/07/04 04:29:37;;;;;;;19.33;13.77;;;;;;;;;;5065130;28;20283;-56
2021/07/04 04:32:04;;;;;;;17.83;13.60;;;;;;;;;;5067405;28;20200;-55
2021/07/04 04:34:29;;;;;;;16.83;13.63;;;;;;;;;;5065357;28;20181;-55
2021/07/04 04:36:54;;;;;;;15.43;13.30;;;;;;;;;;5061303;28;20197;-56
2021/07/04 04:39:22;;;;;;;14.33;12.40;;;;;;;;;;5053612;28;20680;-55
2021/07/04 04:41:49;;;;;;;18.63;13.50;;;;;;;;;;5065976;28;20205;-56
2021/07/04 04:44:15;;;;;;;18.17;12.67;;;;;;;;;;5046695;28;20328;-56
2021/07/04 04:46:40;;;;;;;16.57;11.40;;;;;;;;;;5055533;28;20297;-59
2021/07/04 04:49:05;;;;;;;13.17;11.27;;;;;;;;;;5057817;28;20608;-55
2021/07/04 04:51:31;;;;;;;13.97;11.13;;;;;;;;;;5046207;28;20263;-55
2021/07/04 04:53:56;;;;;;;14.33;11.30;;;;;;;;;;5062536;28;20193;-55
2021/07/04 04:56:21;;;;;;;12.93;11.57;;;;;;;;;;5064547;28;20185;-55
2021/07/04 04:58:47;;;;;;;14.63;11.10;;;;;;;;;;5061965;28;20182;-57
2021/07/04 05:01:12;;;;;;;17.37;11.70;;;;;;;;;;5064123;28;20212;-55
2021/07/04 05:03:37;;;;;;;14.33;11.80;;;;;;;;;;5062897;28;20194;-56
2021/07/04 05:06:03;;;;;;;14.77;9.70;;;;;;;;;;5056989;28;20210;-57
2021/07/04 05:08:30;;;;;;;14.23;9.67;;;;;;;;;;5052624;28;20193;-55
2021/07/04 05:10:55;;;;;;;15.10;11.47;;;;;;;;;;5063802;28;20209;-57
2021/07/04 05:13:21;;;;;;;12.10;10.77;;;;;;;;;;5068909;28;20670;-56
2021/07/04 05:15:46;;;;;;;13.57;11.30;;;;;;;;;;5054431;28;20189;-59
2021/07/04 05:18:11;;;;;;;12.60;9.73;;;;;;;;;;5051866;28;20193;-55
2021/07/04 05:20:37;;;;;;;12.67;11.43;;;;;;;;;;5067729;28;20260;-55
2021/07/04 05:23:02;;;;;;;14.27;11.53;;;;;;;;;;5067055;28;20812;-55
2021/07/04 05:25:28;;;;;;;12.90;11.23;;;;;;;;;;5067531;28;20700;-57
2021/07/04 05:27:53;;;;;;;14.87;11.00;;;;;;;;;;5061475;28;20198;-57
2021/07/04 05:30:19;;;;;;;14.43;12.47;;;;;;;;;;5069711;28;20247;-55
2021/07/04 05:32:44;;;;;;;13.40;11.77;;;;;;;;;;5068266;28;20205;-56
2021/07/04 05:35:10;;;;;;;15.53;11.63;;;;;;;;;;5068789;28;20275;-57
2021/07/04 05:37:36;;;;;;;11.80;10.17;;;;;;;;;;5067709;28;20209;-57
2021/07/04 05:40:04;;;;;;;17.70;13.03;;;;;;;;;;5059995;28;20278;-56
2021/07/04 05:42:30;;;;;;;14.37;12.10;;;;;;;;;;5067239;28;20645;-56
2021/07/04 05:44:55;;;;;;;14.37;12.30;;;;;;;;;;5060060;28;20209;-56
2021/07/04 05:47:21;;;;;;;17.07;10.90;;;;;;;;;;5059282;28;20627;-55
2021/07/04 05:49:46;;;;;;;10.67;9.57;;;;;;;;;;5050937;28;20651;-57
2021/07/04 05:52:12;;;;;;;14.27;10.47;;;;;;;;;;5060691;28;20220;-55
2021/07/04 05:54:37;;;;;;;16.37;12.20;;;;;;;;;;5062663;28;20250;-56
2021/07/04 05:57:06;;;;;;;12.03;10.80;;;;;;;;;;5068538;28;20196;-57
2021/07/04 05:59:33;;;;;;;15.40;10.07;;;;;;;;;;5055172;28;20219;-60
2021/07/04 06:01:58;;;;;;;10.83;9.70;;;;;;;;;;5067066;28;20200;-56
2021/07/04 06:04:23;;;;;;;11.37;9.07;;;;;;;;;;5066010;28;20194;-55
2021/07/04 06:06:49;;;;;;;10.90;9.73;;;;;;;;;;5035906;28;20209;-55
2021/07/04 06:09:14;;;;;;;11.27;10.03;;;;;;;;;;5058310;28;20186;-55
2021/07/04 06:11:39;;;;;;;11.33;9.43;;;;;;;;;;5062858;28;20209;-57
2021/07/04 06:14:05;;;;;;;12.07;8.97;;;;;;;;;;5068530;28;20212;-57
2021/07/04 06:16:30;;;;;;;10.23;9.23;;;;;;;;;;5063728;28;20181;-57
2021/07/04 06:18:55;;;;;;;11.65;8.75;;;;;;;;;;5060364;28;20190;-56
2021/07/04 06:21:20;;;;;;;12.15;8.80;;;;;;;;;;5047762;28;20209;-55
2021/07/04 06:23:46;;;;;;;10.45;8.40;;;;;;;;;;5055148;28;20197;-56
2021/07/04 06:26:11;;;;;;;10.07;8.98;;;;;;;;;;5068314;28;20592;-57
2021/07/04 06:28:36;;;;;;;10.43;8.90;;;;;;;;;;5066784;28;20197;-56
2021/07/04 06:31:02;;;;;;;12.50;8.38;;;;;;;;;;5068108;28;20219;-56
2021/07/04 06:33:27;;;;;;;9.93;8.50;;;;;;;;;;5063583;28;20177;-56
2021/07/04 06:35:52;;;;;;;8.88;8.07;;;;;;;;;;5063781;28;20193;-55
2021/07/04 06:38:18;;;;;;;9.80;8.75;;;;;;;;;;5058303;28;20604;-57
2021/07/04 06:40:43;;;;;;;10.70;8.60;;;;;;;;;;5037156;28;20296;-55
2021/07/04 06:43:08;;;;;;;9.10;8.20;;;;;;;;;;5046214;28;20718;-56
2021/07/04 06:45:34;;;;;;;9.48;8.50;;;;;;;;;;5050717;28;20201;-56
2021/07/04 06:47:59;;;;;;;10.02;8.95;;;;;;;;;;5066500;28;20190;-55
2021/07/04 06:50:24;;;;;;;8.70;7.80;;;;;;;;;;5056359;28;20202;-55
2021/07/04 06:52:50;;;;;;;8.57;7.68;;;;;;;;;;5061364;28;20184;-55
2021/07/04 06:55:16;;;;;;;10.35;7.65;;;;;;;;;;5071360;28;20189;-55
2021/07/04 06:57:42;;;;;;;9.13;8.23;;;;;;;;;;5057510;28;20190;-55
2021/07/04 07:00:10;;;;;;;10.30;7.75;;;;;;;;;;5061791;28;20212;-57
2021/07/04 07:02:36;;;;;;;8.20;7.40;;;;;;;;;;5059137;28;20213;-56
2021/07/04 07:05:01;;;;;;;9.90;8.13;;;;;;;;;;5058729;28;20274;-56
2021/07/04 07:07:26;;;;;;;9.43;8.48;;;;;;;;;;5069491;28;20189;-57
2021/07/04 07:09:52;;;;;;;8.05;7.25;;;;;;;;;;5060921;28;20197;-55
2021/07/04 07:12:17;;;;;;;8.18;7.38;;;;;;;;;;5060497;28;20279;-57
2021/07/04 07:14:43;;;;;;;13.35;7.68;;;;;;;;;;5067631;28;20687;-57
2021/07/04 07:17:09;;;;;;;9.48;6.95;;;;;;;;;;5068350;28;20189;-55
2021/07/04 07:19:34;;;;;;;7.68;6.80;;;;;;;;;;5049822;28;20182;-55
2021/07/04 07:22:00;;;;;;;8.35;7.20;;;;;;;;;;5065851;28;20224;-56
2021/07/04 07:24:26;;;;;;;7.45;6.75;;;;;;;;;;5063662;28;20199;-56
2021/07/04 07:26:51;;;;;;;7.50;6.65;;;;;;;;;;5062490;28;20204;-57
2021/07/04 07:29:18;;;;;;;8.27;6.43;;;;;;;;;;5066854;28;20193;-55
2021/07/04 07:31:43;;;;;;;6.68;6.00;;;;;;;;;;5064545;28;20882;-56
2021/07/04 07:34:08;;;;;;;8.55;6.35;;;;;;;;;;5055682;28;20182;-56
2021/07/04 07:36:33;;;;;;;7.43;6.35;;;;;;;;;;5047080;28;20179;-57
2021/07/04 07:38:59;;;;;;;7.78;6.07;;;;;;;;;;5060581;28;20725;-55
2021/07/04 07:41:24;;;;;;;7.65;6.15;;;;;;;;;;5067643;28;20208;-59
2021/07/04 07:43:50;;;;;;;9.70;6.05;;;;;;;;;;5061695;28;20183;-56
2021/07/04 07:46:16;;;;;;;7.13;6.07;;;;;;;;;;5064230;28;20836;-56
2021/07/04 07:48:41;;;;;;;6.53;5.60;;;;;;;;;;5065820;28;20258;-57
2021/07/04 07:51:07;;;;;;;8.05;5.68;;;;;;;;;;5068156;28;20682;-55
2021/07/04 07:53:33;;;;;;;13.77;6.10;;;;;;;;;;5050673;28;20191;-57
2021/07/04 07:55:58;;;;;;;6.22;5.60;;;;;;;;;;5066154;28;20192;-57
2021/07/04 07:58:24;;;;;;;6.43;5.75;;;;;;;;;;5063572;28;20828;-55
2021/07/04 08:00:49;;;;;;;6.13;5.47;;;;;;;;;;5067395;28;20208;-55
2021/07/04 08:03:15;;;;;;;5.35;4.85;;;;;;;;;;5058627;28;20194;-56
2021/07/04 08:05:40;;;;;;;5.93;5.32;;;;;;;;;;5052859;28;20690;-58
2021/07/04 08:08:06;;;;;;;6.30;5.68;;;;;;;;;;5055622;28;20189;-55
2021/07/04 08:10:31;;;;;;;6.00;5.43;;;;;;;;;;5065344;28;20212;-55
2021/07/04 08:12:57;;;;;;;6.35;5.20;;;;;;;;;;5049064;28;20200;-58
2021/07/04 08:15:23;;;;;;;5.35;4.95;;;;;;;;;;5058823;28;20182;-55
2021/07/04 08:17:49;;;;;;;7.15;5.00;;;;;;;;;;5066573;28;20260;-57
2021/07/04 08:20:15;;;;;;;5.45;4.95;;;;;;;;;;5062831;28;20346;-55
2021/07/04 08:22:40;;;;;;;6.00;4.88;;;;;;;;;;5065640;28;20182;-57
2021/07/04 08:25:07;;;;;;;5.22;4.72;;;;;;;;;;5067458;28;20201;-56
2021/07/04 08:27:32;;;;;;;9.45;5.10;;;;;;;;;;5066419;28;20205;-56
2021/07/04 08:29:57;;;;;;;5.15;4.75;;;;;;;;;;5060849;28;20299;-58
2021/07/04 08:32:23;;;;;;;8.15;5.25;;;;;;;;;;5054764;28;20188;-55
2021/07/04 08:34:48;;;;;;;6.32;4.85;;;;;;;;;;5065591;28;20189;-55
2021/07/04 08:37:13;;;;;;;5.45;4.80;;;;;;;;;;5065700;28;20185;-55
2021/07/04 08:39:39;;;;;;;5.10;4.30;;;;;;;;;;5045511;28;20848;-57
2021/07/04 08:42:04;;;;;;;4.88;4.47;;;;;;;;;;5052103;28;20180;-56
2021/07/04 08:44:29;;;;;;;4.80;4.40;;;;;;;;;;5065084;28;20184;-58
2021/07/04 08:46:57;;;;;;;4.72;4.20;;;;;;;;;;5066799;28;20908;-56
2021/07/04 08:49:23;;;;;;;4.97;4.57;;;;;;;;;;5057459;28;20193;-57
2021/07/04 08:51:48;;;;;;;4.70;4.18;;;;;;;;;;5055706;28;20190;-58
2021/07/04 08:54:14;;;;;;;5.72;4.65;;;;;;;;;;5059626;28;20280;-56
2021/07/04 08:56:39;;;;;;;5.15;4.68;;;;;;;;;;5067208;28;20182;-58
2021/07/04 08:59:05;;;;;;;4.80;4.28;;;;;;;;;;5068267;28;20649;-59
2021/07/04 09:01:31;;;;;;;5.00;4.60;;;;;;;;;;5067924;28;20293;-58
2021/07/04 09:04:11;;;;;;;5.95;4.22;;;;;;;;;;5065306;28;20215;-59
2021/07/04 09:06:44;;;;;;;4.82;4.43;;;;;;;;;;5042647;28;20201;-58
2021/07/04 09:09:15;;;;;;;5.03;4.53;;;;;;;;;;5055791;28;20178;-57
2021/07/04 09:12:10;;;;;;;4.65;4.25;;;;;;;;;;5068478;28;20276;-57
2021/07/04 09:14:41;;;;;;;5.28;4.78;;;;;;;;;;5065426;28;20181;-55
2021/07/04 09:17:12;;;;;;;5.13;4.72;;;;;;;;;;5066872;28;20252;-57
2021/07/04 09:19:41;;;;;;;5.38;4.82;;;;;;;;;;5069047;28;20185;-55
2021/07/04 09:22:09;;;;;;;8.10;4.80;;;;;;;;;;5054471;28;20184;-58
2021/07/04 09:24:42;;;;;;;5.20;4.32;;;;;;;;;;5068333;28;20622;-55
2021/07/04 09:27:12;;;;;;;4.95;4.50;;;;;;;;;;5067865;28;20591;-55
2021/07/04 09:29:49;;;;;;;5.53;4.43;;;;;;;;;;5066066;28;20188;-56
2021/07/04 09:32:26;;;;;;;4.65;4.25;;;;;;;;;;5074387;28;20533;-56
2021/07/04 09:35:07;;;;;;;5.05;4.55;;;;;;;;;;5067204;28;20200;-57
2021/07/04 09:37:33;;;;;;;4.70;4.22;;;;;;;;;;5068118;28;20657;-55
2021/07/04 09:40:08;;;;;;;4.78;4.38;;;;;;;;;;5050682;28;20696;-55
2021/07/04 09:42:33;;;;;;;4.30;3.97;;;;;;;;;;5076263;28;20173;-56
2021/07/04 09:44:58;;;;;;;4.70;4.20;;;;;;;;;;5055633;28;20676;-55
2021/07/04 09:47:23;;;;;;;4.22;3.83;;;;;;;;;;5065826;28;20193;-58
2021/07/04 09:49:49;;;;;;;5.25;4.10;;;;;;;;;;5055785;28;20621;-57
2021/07/04 09:52:21;;;;;;;4.45;4.05;;;;;;;;;;5066916;28;20273;-58
2021/07/04 09:55:04;;;;;;;5.18;4.28;;;;;;;;;;5065781;28;20181;-57
2021/07/04 09:57:56;;;;;;;4.70;4.30;;;;;;;;;;5040367;28;20242;-57
2021/07/04 10:00:25;;;;;;;5.50;4.50;;;;;;;;;;5064372;28;20299;-59
2021/07/04 10:03:11;;;;;;;4.90;4.25;;;;;;;;;;5067634;28;20169;-57
2021/07/04 10:05:50;;;;;;;4.78;4.38;;;;;;;;;;5065147;28;20213;-58
2021/07/04 10:08:18;;;;;;;5.13;4.65;;;;;;;;;;5065562;28;20545;-58
2021/07/04 10:10:43;;;;;;;5.05;4.55;;;;;;;;;;5065246;28;20221;-57
2021/07/04 10:13:09;;;;;;;4.75;4.35;;;;;;;;;;5067139;28;20548;-57
2021/07/04 10:15:35;;;;;;;5.05;4.50;;;;;;;;;;5066370;28;20277;-58
2021/07/04 10:18:01;;;;;;;4.80;4.28;;;;;;;;;;5052083;28;20185;-59
2021/07/04 10:20:27;;;;;;;5.03;3.97;;;;;;;;;;5065622;28;20564;-57
2021/07/04 10:22:53;;;;;;;4.90;4.50;;;;;;;;;;5036882;28;20186;-59
2021/07/04 10:25:18;;;;;;;4.50;4.13;;;;;;;;;;5069810;28;20292;-60
2021/07/04 10:27:44;;;;;;;5.38;4.25;;;;;;;;;;5064600;28;20189;-57
2021/07/04 10:30:09;;;;;;;4.28;3.55;;;;;;;;;;5071582;28;20257;-57
2021/07/04 10:32:35;;;;;;;4.00;3.70;;;;;;;;;;5069716;28;20165;-58
2021/07/04 10:35:06;;;;;;;5.88;3.70;;;;;;;;;;5059268;28;20182;-58
2021/07/04 10:37:38;;;;;;;4.10;3.67;;;;;;;;;;5061341;28;20193;-58
2021/07/04 10:40:21;;;;;;;4.07;3.35;;;;;;;;;;5046774;28;20208;-58
2021/07/04 10:42:47;;;;;;;5.60;3.75;;;;;;;;;;5056793;28;20177;-56
2021/07/04 10:45:36;;;;;;;4.00;3.70;;;;;;;;;;5057296;28;20288;-58
2021/07/04 10:48:20;;;;;;;3.78;3.45;;;;;;;;;;5066381;28;20277;-57
2021/07/04 10:51:15;;;;;;;3.67;3.38;;;;;;;;;;5052025;28;20228;-56
2021/07/04 10:53:53;;;;;;;3.60;3.10;;;;;;;;;;5054621;28;20186;-58
2021/07/04 10:56:40;;;;;;;4.38;3.58;;;;;;;;;;5063758;28;20216;-58
2021/07/04 10:59:09;;;;;;;5.93;3.55;;;;;;;;;;5067556;28;20363;-60
2021/07/04 11:02:32;;;;;;;4.00;3.38;;;;;;;;;;5076685;28;20205;-58
2021/07/04 11:04:58;;;;;;;4.53;3.70;;;;;;;;;;4987661;28;20234;-58
2021/07/04 11:07:23;;;;;;;4.68;3.88;;;;;;;;;;4977247;28;20189;-59
2021/07/04 11:09:51;;;;;;;4.15;3.80;;;;;;;;;;5030076;28;20704;-58
2021/07/04 11:12:43;;;;;;;4.68;3.80;;;;;;;;;;5068135;28;20687;-57
2021/07/04 11:15:11;;;;;;;4.00;3.70;;;;;;;;;;5063129;28;20193;-57
2021/07/04 11:17:55;;;;;;;4.10;3.70;;;;;;;;;;5063418;28;20182;-58
2021/07/04 11:20:21;;;;;;;3.90;3.50;;;;;;;;;;5071160;28;23582;-59
2021/07/04 11:22:58;;;;;;;4.65;4.05;;;;;;;;;;5068371;28;20185;-60
2021/07/04 11:25:25;;;;;;;4.57;4.15;;;;;;;;;;5064862;28;20848;-57
2021/07/04 11:28:35;;;;;;;4.43;4.03;;;;;;;;;;5069890;28;20197;-58
2021/07/04 11:31:05;;;;;;;4.13;3.83;;;;;;;;;;4989929;28;20209;-57
2021/07/04 11:33:38;;;;;;;4.60;4.22;;;;;;;;;;5002630;28;20309;-59
2021/07/04 11:36:10;;;;;;;4.10;3.80;;;;;;;;;;5023273;28;20276;-57
2021/07/04 11:38:45;;;;;;;4.53;3.85;;;;;;;;;;5070428;28;20566;-58
2021/07/04 11:41:29;;;;;;;4.38;3.60;;;;;;;;;;5069231;28;20574;-57
2021/07/04 11:43:59;;;;;;;4.68;4.28;;;;;;;;;;5066117;28;20188;-56
2021/07/04 11:46:27;;;;;;;3.80;3.50;;;;;;;;;;5068522;28;20283;-58
2021/07/04 11:48:56;;;;;;;4.50;4.10;;;;;;;;;;5054272;28;20183;-58
2021/07/04 11:51:23;;;;;;;5.30;4.80;;;;;;;;;;5049605;28;20197;-57
2021/07/04 11:53:51;;;;;;;4.20;3.67;;;;;;;;;;5066504;28;20228;-57
2021/07/04 11:56:17;;;;;;;5.22;4.00;;;;;;;;;;5071044;28;20754;-56
2021/07/04 11:58:43;;;;;;;6.00;4.03;;;;;;;;;;5070844;28;20188;-57
2021/07/04 12:01:24;;;;;;;4.25;3.95;;;;;;;;;;5066360;28;20208;-56
2021/07/04 12:03:51;;;;;;;4.63;4.20;;;;;;;;;;5052358;28;20596;-57
2021/07/04 12:06:17;;;;;;;4.18;3.88;;;;;;;;;;5063299;28;20677;-58
2021/07/04 12:08:54;;;;;;;4.07;3.75;;;;;;;;;;5064623;28;20203;-58
2021/07/04 12:11:37;;;;;;;4.85;4.45;;;;;;;;;;5050418;28;20212;-58
2021/07/04 12:14:03;;;;;;;4.60;4.20;;;;;;;;;;5066201;28;20187;-56
2021/07/04 12:16:36;;;;;;;4.88;4.53;;;;;;;;;;5064292;28;20268;-58
2021/07/04 12:19:01;;;;;;;5.13;4.70;;;;;;;;;;5066763;28;20185;-55
2021/07/04 12:21:37;;;;;;;5.00;4.50;;;;;;;;;;5071798;28;20817;-56
2021/07/04 12:24:02;;;;;;;5.00;4.60;;;;;;;;;;5051764;28;20227;-57
2021/07/04 12:26:27;;;;;;;5.22;4.80;;;;;;;;;;5070874;28;20233;-58
2021/07/04 12:29:02;;;;;;;4.97;4.57;;;;;;;;;;5045013;28;20247;-57
2021/07/04 12:31:27;;;;;;;5.05;4.75;;;;;;;;;;5048033;28;20219;-57
2021/07/04 12:33:52;;;;;;;6.30;5.43;;;;;;;;;;5066901;28;20198;-58
2021/07/04 12:36:18;;;;;;;4.82;4.53;;;;;;;;;;5072380;28;20181;-57
2021/07/04 12:38:46;;;;;;;7.80;5.53;;;;;;;;;;5066512;28;20212;-58
2021/07/04 12:41:13;;;;;;;5.47;5.03;;;;;;;;;;5060031;28;20213;-58
2021/07/04 12:43:50;;;;;;;5.05;4.65;;;;;;;;;;5069107;28;20203;-60
2021/07/04 12:46:23;;;;;;;6.00;5.50;;;;;;;;;;5067832;28;20205;-59
2021/07/04 12:48:51;;;;;;;5.20;4.70;;;;;;;;;;5071952;28;20287;-57
2021/07/04 12:51:24;;;;;;;5.40;5.00;;;;;;;;;;5070619;28;20700;-59
2021/07/04 12:53:50;;;;;;;5.40;5.00;;;;;;;;;;5050300;28;20169;-58
2021/07/04 12:56:29;;;;;;;6.75;4.72;;;;;;;;;;5051178;28;20186;-59
2021/07/04 12:58:59;;;;;;;5.78;5.30;;;;;;;;;;5069679;28;20193;-58
2021/07/04 13:01:28;;;;;;;5.63;5.13;;;;;;;;;;5068340;28;20209;-57
2021/07/04 13:04:04;;;;;;;6.55;5.13;;;;;;;;;;5066815;28;20595;-57
2021/07/04 13:06:35;;;;;;;5.50;5.00;;;;;;;;;;5067503;28;20204;-59
2021/07/04 13:09:11;;;;;;;5.95;4.78;;;;;;;;;;5064561;28;20945;-57
2021/07/04 13:11:38;;;;;;;4.80;4.47;;;;;;;;;;5068570;28;20200;-58
2021/07/04 13:14:07;;;;;;;4.90;4.50;;;;;;;;;;5070099;28;20193;-57
2021/07/04 13:16:34;;;;;;;4.80;4.40;;;;;;;;;;5064632;28;20192;-57
2021/07/04 13:19:23;;;;;;;5.63;5.18;;;;;;;;;;5049520;28;20182;-57
2021/07/04 13:21:49;;;;;;;5.47;4.97;;;;;;;;;;5060578;28;20204;-56
2021/07/04 13:24:19;;;;;;;5.68;4.90;;;;;;;;;;5038569;28;20560;-57
2021/07/04 13:26:59;;;;;;;4.97;4.57;;;;;;;;;;5067743;28;20201;-57
2021/07/04 13:29:27;;;;;;;4.68;4.38;;;;;;;;;;5063451;28;20185;-55
2021/07/04 13:32:10;;;;;;;4.20;3.90;;;;;;;;;;5059889;28;20185;-58
2021/07/04 13:34:37;;;;;;;6.95;4.35;;;;;;;;;;5067708;28;20185;-55
2021/07/04 13:37:15;;;;;;;5.43;4.50;;;;;;;;;;5060899;28;20182;-56
2021/07/04 13:40:01;;;;;;;4.75;4.05;;;;;;;;;;5064023;28;20595;-58
2021/07/04 13:42:29;;;;;;;4.38;4.07;;;;;;;;;;5069340;28;20184;-58
2021/07/04 13:44:55;;;;;;;4.90;4.50;;;;;;;;;;5067048;28;20177;-56
2021/07/04 13:47:20;;;;;;;4.68;4.30;;;;;;;;;;5066908;28;20703;-56
2021/07/04 13:49:46;;;;;;;6.93;4.25;;;;;;;;;;5068458;28;20213;-55
2021/07/04 13:52:14;;;;;;;6.38;4.70;;;;;;;;;;5068239;28;20177;-57
2021/07/04 13:54:39;;;;;;;5.40;5.00;;;;;;;;;;5066986;28;20239;-56
2021/07/04 13:57:08;;;;;;;5.30;4.80;;;;;;;;;;5069621;28;20216;-57
2021/07/04 13:59:34;;;;;;;5.30;4.80;;;;;;;;;;5065261;28;20186;-56
2021/07/04 14:02:00;;;;;;;5.40;4.60;;;;;;;;;;5063820;28;20194;-58
2021/07/04 14:04:25;;;;;;;6.15;4.70;;;;;;;;;;5065321;28;20669;-57
2021/07/04 14:06:51;;;;;;;5.35;4.85;;;;;;;;;;5066680;28;20197;-56
2021/07/04 14:09:18;;;;;;;5.78;5.18;;;;;;;;;;5046594;28;20185;-59
2021/07/04 14:11:47;;;;;;;5.50;5.00;;;;;;;;;;5053967;28;20225;-56
2021/07/04 14:14:12;;;;;;;5.00;4.60;;;;;;;;;;5067838;28;20173;-57
2021/07/04 14:16:38;;;;;;;5.15;4.68;;;;;;;;;;5047492;28;20204;-57
2021/07/04 14:19:04;;;;;;;5.63;5.13;;;;;;;;;;5067686;28;20263;-56
2021/07/04 14:21:30;;;;;;;5.25;4.75;;;;;;;;;;5068034;28;20293;-57
2021/07/04 14:23:55;;;;;;;5.32;4.93;;;;;;;;;;5067454;28;20268;-56
2021/07/04 14:26:21;;;;;;;5.45;4.65;;;;;;;;;;5068283;28;20204;-55
2021/07/04 14:28:48;;;;;;;4.57;4.18;;;;;;;;;;5056051;28;20186;-57
2021/07/04 14:31:14;;;;;;;4.70;4.30;;;;;;;;;;5061557;28;20201;-57
2021/07/04 14:33:39;;;;;;;5.82;4.65;;;;;;;;;;5041251;28;20211;-57
2021/07/04 14:36:05;;;;;;;4.95;4.55;;;;;;;;;;5058224;28;20907;-59
2021/07/04 14:38:30;;;;;;;4.72;4.32;;;;;;;;;;5064327;28;20729;-57
2021/07/04 14:40:55;;;;;;;4.63;4.22;;;;;;;;;;5065593;28;20209;-56